sensor_id;sensor_type;location;lat;lon;timestamp;P1;durP1;ratioP1;P2;durP2;ratioP2
78923;SDS011;75282;41.394;23.212;2024-03-02T00:01:16;14.48;;;8.05;;
78923;SDS011;75282;41.394;23.212;2024-03-02T00:03:42;11.02;;;7.70;;
78923;SDS011;75282;41.394;23.212;2024-03-02T00:06:08;12.88;;;7.40;;
78923;SDS011;75282;41.394;23.212;2024-03-02T00:08:33;9.13;;;7.03;;
78923;SDS011;75282;41.394;23.212;2024-03-02T00:10:59;12.70;;;7.70;;
78923;SDS011;75282;41.394;23.212;2024-03-02T00:13:26;11.52;;;8.32;;
78923;SDS011;75282;41.394;23.212;2024-03-02T00:15:52;11.57;;;8.45;;
78923;SDS011;75282;41.394;23.212;2024-03-02T00:18:19;14.70;;;9.85;;
78923;SDS011;75282;41.394;23.212;2024-03-02T00:20:46;17.73;;;9.65;;
78923;SDS011;75282;41.394;23.212;2024-03-02T00:23:14;17.45;;;10.85;;
78923;SDS011;75282;41.394;23.212;2024-03-02T00:25:41;16.33;;;10.93;;
78923;SDS011;75282;41.394;23.212;2024-03-02T00:28:35;17.23;;;11.23;;
78923;SDS011;75282;41.394;23.212;2024-03-02T00:31:10;19.60;;;11.27;;
78923;SDS011;75282;41.394;23.212;2024-03-02T00:36:08;18.92;;;11.30;;
78923;SDS011;75282;41.394;23.212;2024-03-02T00:38:35;15.25;;;10.30;;
78923;SDS011;75282;41.394;23.212;2024-03-02T00:41:19;15.02;;;10.00;;
78923;SDS011;75282;41.394;23.212;2024-03-02T00:43:56;15.75;;;10.07;;
78923;SDS011;75282;41.394;23.212;2024-03-02T00:46:22;13.15;;;9.15;;
78923;SDS011;75282;41.394;23.212;2024-03-02T00:48:55;8.05;;;6.70;;
78923;SDS011;75282;41.394;23.212;2024-03-02T00:51:22;14.60;;;7.85;;
78923;SDS011;75282;41.394;23.212;2024-03-02T00:53:49;12.07;;;7.63;;
78923;SDS011;75282;41.394;23.212;2024-03-02T00:56:15;11.75;;;8.63;;
78923;SDS011;75282;41.394;23.212;2024-03-02T00:58:41;14.70;;;9.30;;
78923;SDS011;75282;41.394;23.212;2024-03-02T01:01:07;12.73;;;9.25;;
78923;SDS011;75282;41.394;23.212;2024-03-02T01:03:33;19.57;;;11.23;;
78923;SDS011;75282;41.394;23.212;2024-03-02T01:05:59;15.75;;;10.30;;
78923;SDS011;75282;41.394;23.212;2024-03-02T01:08:24;16.48;;;8.77;;
78923;SDS011;75282;41.394;23.212;2024-03-02T01:10:51;13.90;;;8.50;;
78923;SDS011;75282;41.394;23.212;2024-03-02T01:13:16;12.60;;;8.25;;
78923;SDS011;75282;41.394;23.212;2024-03-02T01:15:41;12.43;;;7.90;;
78923;SDS011;75282;41.394;23.212;2024-03-02T01:18:07;10.57;;;7.75;;
78923;SDS011;75282;41.394;23.212;2024-03-02T01:20:32;11.55;;;7.63;;
78923;SDS011;75282;41.394;23.212;2024-03-02T01:22:58;11.48;;;7.32;;
78923;SDS011;75282;41.394;23.212;2024-03-02T01:25:23;9.23;;;6.65;;
78923;SDS011;75282;41.394;23.212;2024-03-02T01:27:50;7.85;;;6.20;;
78923;SDS011;75282;41.394;23.212;2024-03-02T01:30:15;9.25;;;6.25;;
78923;SDS011;75282;41.394;23.212;2024-03-02T01:32:40;8.13;;;6.38;;
78923;SDS011;75282;41.394;23.212;2024-03-02T01:35:06;8.73;;;6.40;;
78923;SDS011;75282;41.394;23.212;2024-03-02T01:37:32;7.80;;;6.22;;
78923;SDS011;75282;41.394;23.212;2024-03-02T01:39:57;9.25;;;6.47;;
78923;SDS011;75282;41.394;23.212;2024-03-02T01:42:23;7.53;;;6.03;;
78923;SDS011;75282;41.394;23.212;2024-03-02T01:44:49;8.95;;;6.15;;
78923;SDS011;75282;41.394;23.212;2024-03-02T01:47:14;10.27;;;7.20;;
78923;SDS011;75282;41.394;23.212;2024-03-02T01:49:40;8.20;;;6.60;;
78923;SDS011;75282;41.394;23.212;2024-03-02T01:52:06;10.52;;;7.45;;
78923;SDS011;75282;41.394;23.212;2024-03-02T01:54:32;10.30;;;7.72;;
78923;SDS011;75282;41.394;23.212;2024-03-02T01:56:57;11.27;;;8.00;;
78923;SDS011;75282;41.394;23.212;2024-03-02T01:59:23;11.23;;;8.18;;
78923;SDS011;75282;41.394;23.212;2024-03-02T02:01:48;14.77;;;9.32;;
78923;SDS011;75282;41.394;23.212;2024-03-02T02:04:13;14.60;;;9.13;;
78923;SDS011;75282;41.394;23.212;2024-03-02T02:06:39;14.53;;;8.90;;
78923;SDS011;75282;41.394;23.212;2024-03-02T02:09:04;12.83;;;9.53;;
78923;SDS011;75282;41.394;23.212;2024-03-02T02:11:33;12.32;;;8.75;;
78923;SDS011;75282;41.394;23.212;2024-03-02T02:13:58;13.13;;;8.93;;
78923;SDS011;75282;41.394;23.212;2024-03-02T02:16:23;11.37;;;8.80;;
78923;SDS011;75282;41.394;23.212;2024-03-02T02:18:49;13.48;;;8.73;;
78923;SDS011;75282;41.394;23.212;2024-03-02T02:21:14;13.50;;;8.37;;
78923;SDS011;75282;41.394;23.212;2024-03-02T02:23:39;16.60;;;10.70;;
78923;SDS011;75282;41.394;23.212;2024-03-02T02:26:05;19.08;;;13.00;;
78923;SDS011;75282;41.394;23.212;2024-03-02T02:28:30;21.83;;;14.70;;
78923;SDS011;75282;41.394;23.212;2024-03-02T02:30:56;29.80;;;16.98;;
78923;SDS011;75282;41.394;23.212;2024-03-02T02:33:22;27.35;;;16.80;;
78923;SDS011;75282;41.394;23.212;2024-03-02T02:35:47;25.63;;;16.95;;
78923;SDS011;75282;41.394;23.212;2024-03-02T02:38:12;27.13;;;15.17;;
78923;SDS011;75282;41.394;23.212;2024-03-02T02:40:38;20.67;;;14.30;;
78923;SDS011;75282;41.394;23.212;2024-03-02T02:43:03;18.83;;;13.00;;
78923;SDS011;75282;41.394;23.212;2024-03-02T02:45:28;17.98;;;12.68;;
78923;SDS011;75282;41.394;23.212;2024-03-02T02:47:54;20.92;;;13.25;;
78923;SDS011;75282;41.394;23.212;2024-03-02T02:50:19;21.95;;;13.20;;
78923;SDS011;75282;41.394;23.212;2024-03-02T02:52:45;17.80;;;12.73;;
78923;SDS011;75282;41.394;23.212;2024-03-02T02:55:11;18.75;;;12.63;;
78923;SDS011;75282;41.394;23.212;2024-03-02T02:57:39;17.67;;;12.25;;
78923;SDS011;75282;41.394;23.212;2024-03-02T03:00:06;20.48;;;12.55;;
78923;SDS011;75282;41.394;23.212;2024-03-02T03:02:39;20.05;;;12.60;;
78923;SDS011;75282;41.394;23.212;2024-03-02T03:05:06;18.73;;;11.57;;
78923;SDS011;75282;41.394;23.212;2024-03-02T03:07:33;19.65;;;13.60;;
78923;SDS011;75282;41.394;23.212;2024-03-02T03:09:59;23.27;;;14.55;;
78923;SDS011;75282;41.394;23.212;2024-03-02T03:12:24;24.05;;;14.93;;
78923;SDS011;75282;41.394;23.212;2024-03-02T03:14:50;24.58;;;15.90;;
78923;SDS011;75282;41.394;23.212;2024-03-02T03:17:15;24.83;;;14.50;;
78923;SDS011;75282;41.394;23.212;2024-03-02T03:19:40;21.17;;;12.40;;
78923;SDS011;75282;41.394;23.212;2024-03-02T03:22:06;21.47;;;13.93;;
78923;SDS011;75282;41.394;23.212;2024-03-02T03:24:31;18.67;;;12.40;;
78923;SDS011;75282;41.394;23.212;2024-03-02T03:26:58;18.25;;;12.32;;
78923;SDS011;75282;41.394;23.212;2024-03-02T03:29:23;19.02;;;12.35;;
78923;SDS011;75282;41.394;23.212;2024-03-02T03:31:48;19.57;;;12.27;;
78923;SDS011;75282;41.394;23.212;2024-03-02T03:34:14;18.07;;;12.03;;
78923;SDS011;75282;41.394;23.212;2024-03-02T03:36:41;16.65;;;11.02;;
78923;SDS011;75282;41.394;23.212;2024-03-02T03:39:06;15.48;;;10.73;;
78923;SDS011;75282;41.394;23.212;2024-03-02T03:41:32;16.30;;;10.70;;
78923;SDS011;75282;41.394;23.212;2024-03-02T03:43:57;15.25;;;10.50;;
78923;SDS011;75282;41.394;23.212;2024-03-02T03:46:22;14.17;;;9.77;;
78923;SDS011;75282;41.394;23.212;2024-03-02T03:48:48;13.23;;;9.37;;
78923;SDS011;75282;41.394;23.212;2024-03-02T03:51:13;12.10;;;9.52;;
78923;SDS011;75282;41.394;23.212;2024-03-02T03:53:39;13.47;;;8.33;;
78923;SDS011;75282;41.394;23.212;2024-03-02T03:56:04;13.32;;;8.88;;
78923;SDS011;75282;41.394;23.212;2024-03-02T03:58:30;12.82;;;9.35;;
78923;SDS011;75282;41.394;23.212;2024-03-02T04:00:55;17.27;;;10.90;;
78923;SDS011;75282;41.394;23.212;2024-03-02T04:03:21;22.45;;;13.25;;
78923;SDS011;75282;41.394;23.212;2024-03-02T04:05:47;21.17;;;13.77;;
78923;SDS011;75282;41.394;23.212;2024-03-02T04:08:12;19.23;;;12.33;;
78923;SDS011;75282;41.394;23.212;2024-03-02T04:10:37;18.50;;;12.53;;
78923;SDS011;75282;41.394;23.212;2024-03-02T04:13:03;19.17;;;12.30;;
78923;SDS011;75282;41.394;23.212;2024-03-02T04:15:28;21.92;;;11.73;;
78923;SDS011;75282;41.394;23.212;2024-03-02T04:17:53;14.33;;;10.60;;
78923;SDS011;75282;41.394;23.212;2024-03-02T04:20:20;18.38;;;11.82;;
78923;SDS011;75282;41.394;23.212;2024-03-02T04:22:45;18.80;;;11.83;;
78923;SDS011;75282;41.394;23.212;2024-03-02T04:25:10;17.13;;;11.85;;
78923;SDS011;75282;41.394;23.212;2024-03-02T04:27:36;21.73;;;12.80;;
78923;SDS011;75282;41.394;23.212;2024-03-02T04:30:01;19.73;;;12.63;;
78923;SDS011;75282;41.394;23.212;2024-03-02T04:32:28;15.77;;;11.68;;
78923;SDS011;75282;41.394;23.212;2024-03-02T04:34:54;23.55;;;13.65;;
78923;SDS011;75282;41.394;23.212;2024-03-02T04:37:19;24.45;;;14.60;;
78923;SDS011;75282;41.394;23.212;2024-03-02T04:39:45;24.55;;;16.13;;
78923;SDS011;75282;41.394;23.212;2024-03-02T04:42:10;20.80;;;14.57;;
78923;SDS011;75282;41.394;23.212;2024-03-02T04:44:35;24.23;;;15.07;;
78923;SDS011;75282;41.394;23.212;2024-03-02T04:47:03;21.40;;;15.18;;
78923;SDS011;75282;41.394;23.212;2024-03-02T04:49:28;21.77;;;14.57;;
78923;SDS011;75282;41.394;23.212;2024-03-02T04:51:53;24.40;;;14.63;;
78923;SDS011;75282;41.394;23.212;2024-03-02T04:54:19;19.33;;;12.93;;
78923;SDS011;75282;41.394;23.212;2024-03-02T04:56:44;22.60;;;15.35;;
78923;SDS011;75282;41.394;23.212;2024-03-02T04:59:14;27.40;;;18.50;;
78923;SDS011;75282;41.394;23.212;2024-03-02T05:01:39;25.03;;;17.27;;
78923;SDS011;75282;41.394;23.212;2024-03-02T05:04:04;29.33;;;18.00;;
78923;SDS011;75282;41.394;23.212;2024-03-02T05:06:30;25.93;;;17.40;;
78923;SDS011;75282;41.394;23.212;2024-03-02T05:08:55;24.13;;;15.52;;
78923;SDS011;75282;41.394;23.212;2024-03-02T05:11:21;24.10;;;15.13;;
78923;SDS011;75282;41.394;23.212;2024-03-02T05:14:02;22.08;;;14.63;;
78923;SDS011;75282;41.394;23.212;2024-03-02T05:16:27;32.65;;;19.02;;
78923;SDS011;75282;41.394;23.212;2024-03-02T05:18:53;26.70;;;19.67;;
78923;SDS011;75282;41.394;23.212;2024-03-02T05:21:18;25.23;;;17.48;;
78923;SDS011;75282;41.394;23.212;2024-03-02T05:23:44;25.90;;;17.77;;
78923;SDS011;75282;41.394;23.212;2024-03-02T05:26:09;21.83;;;15.25;;
78923;SDS011;75282;41.394;23.212;2024-03-02T05:28:37;24.17;;;16.60;;
78923;SDS011;75282;41.394;23.212;2024-03-02T05:31:03;21.15;;;16.38;;
78923;SDS011;75282;41.394;23.212;2024-03-02T05:33:28;27.15;;;18.38;;
78923;SDS011;75282;41.394;23.212;2024-03-02T05:35:56;32.47;;;22.23;;
78923;SDS011;75282;41.394;23.212;2024-03-02T05:38:21;47.38;;;31.83;;
78923;SDS011;75282;41.394;23.212;2024-03-02T05:40:47;39.90;;;24.33;;
78923;SDS011;75282;41.394;23.212;2024-03-02T05:43:12;40.47;;;25.38;;
78923;SDS011;75282;41.394;23.212;2024-03-02T05:45:38;44.47;;;25.33;;
78923;SDS011;75282;41.394;23.212;2024-03-02T05:48:04;39.17;;;23.38;;
78923;SDS011;75282;41.394;23.212;2024-03-02T05:50:34;33.28;;;19.65;;
78923;SDS011;75282;41.394;23.212;2024-03-02T05:52:59;26.73;;;17.08;;
78923;SDS011;75282;41.394;23.212;2024-03-02T05:55:24;27.47;;;17.80;;
78923;SDS011;75282;41.394;23.212;2024-03-02T05:57:50;28.55;;;18.92;;
78923;SDS011;75282;41.394;23.212;2024-03-02T06:00:33;25.63;;;18.42;;
78923;SDS011;75282;41.394;23.212;2024-03-02T06:02:59;24.20;;;16.75;;
78923;SDS011;75282;41.394;23.212;2024-03-02T06:05:24;25.90;;;16.10;;
78923;SDS011;75282;41.394;23.212;2024-03-02T06:07:50;43.63;;;26.60;;
78923;SDS011;75282;41.394;23.212;2024-03-02T06:10:15;59.72;;;32.78;;
78923;SDS011;75282;41.394;23.212;2024-03-02T06:12:41;64.25;;;33.88;;
78923;SDS011;75282;41.394;23.212;2024-03-02T06:15:06;66.85;;;37.53;;
78923;SDS011;75282;41.394;23.212;2024-03-02T06:17:32;64.43;;;36.22;;
78923;SDS011;75282;41.394;23.212;2024-03-02T06:19:57;69.68;;;37.88;;
78923;SDS011;75282;41.394;23.212;2024-03-02T06:22:23;60.47;;;36.20;;
78923;SDS011;75282;41.394;23.212;2024-03-02T06:24:50;64.78;;;34.10;;
78923;SDS011;75282;41.394;23.212;2024-03-02T06:27:15;56.20;;;31.38;;
78923;SDS011;75282;41.394;23.212;2024-03-02T06:29:41;36.53;;;24.13;;
78923;SDS011;75282;41.394;23.212;2024-03-02T06:32:06;55.20;;;30.67;;
78923;SDS011;75282;41.394;23.212;2024-03-02T06:34:32;47.75;;;28.30;;
78923;SDS011;75282;41.394;23.212;2024-03-02T06:36:57;59.30;;;32.10;;
78923;SDS011;75282;41.394;23.212;2024-03-02T06:39:22;69.20;;;34.93;;
78923;SDS011;75282;41.394;23.212;2024-03-02T06:41:48;62.93;;;37.37;;
78923;SDS011;75282;41.394;23.212;2024-03-02T06:44:13;54.38;;;30.10;;
78923;SDS011;75282;41.394;23.212;2024-03-02T06:46:38;50.63;;;23.80;;
78923;SDS011;75282;41.394;23.212;2024-03-02T06:49:04;51.03;;;24.00;;
78923;SDS011;75282;41.394;23.212;2024-03-02T06:51:29;68.03;;;29.98;;
78923;SDS011;75282;41.394;23.212;2024-03-02T06:53:55;65.40;;;33.58;;
78923;SDS011;75282;41.394;23.212;2024-03-02T06:56:20;64.68;;;29.73;;
78923;SDS011;75282;41.394;23.212;2024-03-02T06:58:46;82.68;;;29.63;;
78923;SDS011;75282;41.394;23.212;2024-03-02T07:01:11;65.38;;;31.63;;
78923;SDS011;75282;41.394;23.212;2024-03-02T07:03:37;72.32;;;35.30;;
78923;SDS011;75282;41.394;23.212;2024-03-02T07:06:04;64.28;;;33.03;;
78923;SDS011;75282;41.394;23.212;2024-03-02T07:08:30;67.18;;;32.20;;
78923;SDS011;75282;41.394;23.212;2024-03-02T07:10:55;60.23;;;28.27;;
78923;SDS011;75282;41.394;23.212;2024-03-02T07:13:21;55.33;;;27.48;;
78923;SDS011;75282;41.394;23.212;2024-03-02T07:15:46;54.22;;;28.35;;
78923;SDS011;75282;41.394;23.212;2024-03-02T07:18:32;46.38;;;24.60;;
78923;SDS011;75282;41.394;23.212;2024-03-02T07:20:58;42.28;;;24.48;;
78923;SDS011;75282;41.394;23.212;2024-03-02T07:23:26;52.63;;;26.73;;
78923;SDS011;75282;41.394;23.212;2024-03-02T07:25:55;61.55;;;30.63;;
78923;SDS011;75282;41.394;23.212;2024-03-02T07:28:21;70.88;;;34.03;;
78923;SDS011;75282;41.394;23.212;2024-03-02T07:31:03;63.67;;;30.17;;
78923;SDS011;75282;41.394;23.212;2024-03-02T07:33:29;68.70;;;35.67;;
78923;SDS011;75282;41.394;23.212;2024-03-02T07:35:55;61.65;;;33.60;;
78923;SDS011;75282;41.394;23.212;2024-03-02T07:38:21;45.47;;;25.98;;
78923;SDS011;75282;41.394;23.212;2024-03-02T07:40:47;42.70;;;23.52;;
78923;SDS011;75282;41.394;23.212;2024-03-02T07:43:15;54.13;;;28.42;;
78923;SDS011;75282;41.394;23.212;2024-03-02T07:45:41;51.97;;;28.85;;
78923;SDS011;75282;41.394;23.212;2024-03-02T07:48:07;55.13;;;29.42;;
78923;SDS011;75282;41.394;23.212;2024-03-02T07:50:32;60.72;;;28.80;;
78923;SDS011;75282;41.394;23.212;2024-03-02T07:53:00;58.22;;;32.38;;
78923;SDS011;75282;41.394;23.212;2024-03-02T07:55:28;59.78;;;32.42;;
78923;SDS011;75282;41.394;23.212;2024-03-02T07:57:54;70.30;;;31.85;;
78923;SDS011;75282;41.394;23.212;2024-03-02T08:00:20;64.43;;;32.47;;
78923;SDS011;75282;41.394;23.212;2024-03-02T08:02:45;74.25;;;34.47;;
78923;SDS011;75282;41.394;23.212;2024-03-02T08:05:11;63.35;;;31.77;;
78923;SDS011;75282;41.394;23.212;2024-03-02T08:07:36;69.07;;;32.50;;
78923;SDS011;75282;41.394;23.212;2024-03-02T08:10:02;70.03;;;34.53;;
78923;SDS011;75282;41.394;23.212;2024-03-02T08:12:27;59.28;;;31.40;;
78923;SDS011;75282;41.394;23.212;2024-03-02T08:14:52;59.42;;;31.27;;
78923;SDS011;75282;41.394;23.212;2024-03-02T08:17:18;83.47;;;42.30;;
78923;SDS011;75282;41.394;23.212;2024-03-02T08:19:43;78.20;;;37.25;;
78923;SDS011;75282;41.394;23.212;2024-03-02T08:22:09;60.70;;;31.52;;
78923;SDS011;75282;41.394;23.212;2024-03-02T08:24:35;57.08;;;29.20;;
78923;SDS011;75282;41.394;23.212;2024-03-02T08:27:01;58.83;;;30.05;;
78923;SDS011;75282;41.394;23.212;2024-03-02T08:29:26;52.42;;;26.85;;
78923;SDS011;75282;41.394;23.212;2024-03-02T08:31:52;58.53;;;28.83;;
78923;SDS011;75282;41.394;23.212;2024-03-02T08:34:18;56.63;;;29.65;;
78923;SDS011;75282;41.394;23.212;2024-03-02T08:36:43;59.23;;;29.00;;
78923;SDS011;75282;41.394;23.212;2024-03-02T08:39:09;60.90;;;29.90;;
78923;SDS011;75282;41.394;23.212;2024-03-02T08:41:40;59.42;;;29.60;;
78923;SDS011;75282;41.394;23.212;2024-03-02T08:44:15;55.78;;;30.65;;
78923;SDS011;75282;41.394;23.212;2024-03-02T08:46:40;55.42;;;31.38;;
78923;SDS011;75282;41.394;23.212;2024-03-02T08:49:06;58.08;;;33.38;;
78923;SDS011;75282;41.394;23.212;2024-03-02T08:51:31;56.38;;;31.10;;
78923;SDS011;75282;41.394;23.212;2024-03-02T08:53:57;51.40;;;29.25;;
78923;SDS011;75282;41.394;23.212;2024-03-02T08:56:23;38.97;;;22.25;;
78923;SDS011;75282;41.394;23.212;2024-03-02T08:58:49;36.22;;;20.02;;
78923;SDS011;75282;41.394;23.212;2024-03-02T09:01:15;34.53;;;21.48;;
78923;SDS011;75282;41.394;23.212;2024-03-02T09:03:41;32.50;;;20.58;;
78923;SDS011;75282;41.394;23.212;2024-03-02T09:06:09;31.45;;;20.15;;
78923;SDS011;75282;41.394;23.212;2024-03-02T09:08:35;32.97;;;21.13;;
78923;SDS011;75282;41.394;23.212;2024-03-02T09:11:01;45.38;;;27.00;;
78923;SDS011;75282;41.394;23.212;2024-03-02T09:13:27;46.00;;;26.70;;
78923;SDS011;75282;41.394;23.212;2024-03-02T09:15:53;49.73;;;28.93;;
78923;SDS011;75282;41.394;23.212;2024-03-02T09:18:18;65.97;;;38.00;;
78923;SDS011;75282;41.394;23.212;2024-03-02T09:20:43;53.23;;;34.60;;
78923;SDS011;75282;41.394;23.212;2024-03-02T09:23:09;58.73;;;35.20;;
78923;SDS011;75282;41.394;23.212;2024-03-02T09:25:34;55.70;;;34.43;;
78923;SDS011;75282;41.394;23.212;2024-03-02T09:27:59;47.08;;;27.13;;
78923;SDS011;75282;41.394;23.212;2024-03-02T09:30:25;50.53;;;31.80;;
78923;SDS011;75282;41.394;23.212;2024-03-02T09:32:50;61.33;;;35.17;;
78923;SDS011;75282;41.394;23.212;2024-03-02T09:35:15;54.63;;;33.77;;
78923;SDS011;75282;41.394;23.212;2024-03-02T09:37:41;58.30;;;35.17;;
78923;SDS011;75282;41.394;23.212;2024-03-02T09:40:06;54.10;;;35.10;;
78923;SDS011;75282;41.394;23.212;2024-03-02T09:42:32;58.03;;;34.72;;
78923;SDS011;75282;41.394;23.212;2024-03-02T09:44:57;53.42;;;33.45;;
78923;SDS011;75282;41.394;23.212;2024-03-02T09:47:23;50.95;;;31.70;;
78923;SDS011;75282;41.394;23.212;2024-03-02T09:49:49;58.97;;;32.63;;
78923;SDS011;75282;41.394;23.212;2024-03-02T09:52:14;60.08;;;34.53;;
78923;SDS011;75282;41.394;23.212;2024-03-02T09:54:40;46.95;;;27.70;;
78923;SDS011;75282;41.394;23.212;2024-03-02T09:57:05;33.87;;;20.77;;
78923;SDS011;75282;41.394;23.212;2024-03-02T09:59:30;36.55;;;22.85;;
78923;SDS011;75282;41.394;23.212;2024-03-02T10:01:59;36.53;;;23.23;;
78923;SDS011;75282;41.394;23.212;2024-03-02T10:04:26;39.85;;;24.25;;
78923;SDS011;75282;41.394;23.212;2024-03-02T10:06:51;38.17;;;24.77;;
78923;SDS011;75282;41.394;23.212;2024-03-02T10:09:26;41.35;;;26.08;;
78923;SDS011;75282;41.394;23.212;2024-03-02T10:11:52;46.53;;;28.42;;
78923;SDS011;75282;41.394;23.212;2024-03-02T10:14:18;43.23;;;27.13;;
78923;SDS011;75282;41.394;23.212;2024-03-02T10:16:44;46.47;;;26.77;;
78923;SDS011;75282;41.394;23.212;2024-03-02T10:21:47;38.70;;;23.52;;
78923;SDS011;75282;41.394;23.212;2024-03-02T10:24:14;33.35;;;21.33;;
78923;SDS011;75282;41.394;23.212;2024-03-02T10:26:40;33.58;;;22.52;;
78923;SDS011;75282;41.394;23.212;2024-03-02T10:29:07;33.88;;;22.17;;
78923;SDS011;75282;41.394;23.212;2024-03-02T10:31:33;37.25;;;23.88;;
78923;SDS011;75282;41.394;23.212;2024-03-02T10:33:58;26.57;;;17.57;;
78923;SDS011;75282;41.394;23.212;2024-03-02T10:36:25;29.42;;;17.67;;
78923;SDS011;75282;41.394;23.212;2024-03-02T10:38:51;27.25;;;18.05;;
78923;SDS011;75282;41.394;23.212;2024-03-02T10:41:20;29.17;;;18.10;;
78923;SDS011;75282;41.394;23.212;2024-03-02T10:43:48;22.55;;;16.58;;
78923;SDS011;75282;41.394;23.212;2024-03-02T10:46:16;24.27;;;17.10;;
78923;SDS011;75282;41.394;23.212;2024-03-02T10:48:44;23.17;;;16.17;;
78923;SDS011;75282;41.394;23.212;2024-03-02T10:51:11;24.88;;;16.25;;
78923;SDS011;75282;41.394;23.212;2024-03-02T10:53:36;26.60;;;16.15;;
78923;SDS011;75282;41.394;23.212;2024-03-02T10:56:02;25.17;;;16.20;;
78923;SDS011;75282;41.394;23.212;2024-03-02T10:58:31;22.02;;;15.32;;
78923;SDS011;75282;41.394;23.212;2024-03-02T11:00:59;19.92;;;13.65;;
78923;SDS011;75282;41.394;23.212;2024-03-02T11:03:27;22.35;;;15.98;;
78923;SDS011;75282;41.394;23.212;2024-03-02T11:05:54;24.13;;;13.90;;
78923;SDS011;75282;41.394;23.212;2024-03-02T11:08:20;19.08;;;14.07;;
78923;SDS011;75282;41.394;23.212;2024-03-02T11:10:52;18.00;;;13.32;;
78923;SDS011;75282;41.394;23.212;2024-03-02T11:13:22;18.92;;;12.50;;
78923;SDS011;75282;41.394;23.212;2024-03-02T11:15:49;24.08;;;15.45;;
78923;SDS011;75282;41.394;23.212;2024-03-02T11:18:17;18.75;;;14.32;;
78923;SDS011;75282;41.394;23.212;2024-03-02T11:20:42;17.27;;;12.27;;
78923;SDS011;75282;41.394;23.212;2024-03-02T11:23:08;20.13;;;13.35;;
78923;SDS011;75282;41.394;23.212;2024-03-02T11:25:34;20.60;;;14.23;;
78923;SDS011;75282;41.394;23.212;2024-03-02T11:28:01;18.52;;;12.27;;
78923;SDS011;75282;41.394;23.212;2024-03-02T11:32:59;16.83;;;11.60;;
78923;SDS011;75282;41.394;23.212;2024-03-02T11:35:26;18.98;;;12.43;;
78923;SDS011;75282;41.394;23.212;2024-03-02T11:37:53;17.88;;;11.60;;
78923;SDS011;75282;41.394;23.212;2024-03-02T11:40:24;13.30;;;10.33;;
78923;SDS011;75282;41.394;23.212;2024-03-02T11:42:50;14.70;;;11.20;;
78923;SDS011;75282;41.394;23.212;2024-03-02T11:45:22;12.23;;;8.70;;
78923;SDS011;75282;41.394;23.212;2024-03-02T11:47:52;11.02;;;8.18;;
78923;SDS011;75282;41.394;23.212;2024-03-02T11:50:35;9.88;;;7.13;;
78923;SDS011;75282;41.394;23.212;2024-03-02T11:53:08;12.95;;;8.27;;
78923;SDS011;75282;41.394;23.212;2024-03-02T11:55:35;10.30;;;7.95;;
78923;SDS011;75282;41.394;23.212;2024-03-02T11:58:02;10.10;;;7.32;;
78923;SDS011;75282;41.394;23.212;2024-03-02T12:00:30;12.85;;;9.35;;
78923;SDS011;75282;41.394;23.212;2024-03-02T12:03:02;9.80;;;7.22;;
78923;SDS011;75282;41.394;23.212;2024-03-02T12:05:29;11.63;;;8.30;;
78923;SDS011;75282;41.394;23.212;2024-03-02T12:07:56;11.77;;;7.93;;
78923;SDS011;75282;41.394;23.212;2024-03-02T12:10:22;10.32;;;7.82;;
78923;SDS011;75282;41.394;23.212;2024-03-02T12:12:47;17.88;;;8.57;;
78923;SDS011;75282;41.394;23.212;2024-03-02T12:15:13;17.03;;;9.07;;
78923;SDS011;75282;41.394;23.212;2024-03-02T12:17:38;16.70;;;8.47;;
78923;SDS011;75282;41.394;23.212;2024-03-02T12:20:06;13.27;;;7.80;;
78923;SDS011;75282;41.394;23.212;2024-03-02T12:22:32;9.52;;;6.82;;
78923;SDS011;75282;41.394;23.212;2024-03-02T12:24:59;15.35;;;8.65;;
78923;SDS011;75282;41.394;23.212;2024-03-02T12:27:24;16.27;;;11.73;;
78923;SDS011;75282;41.394;23.212;2024-03-02T12:29:49;15.25;;;9.68;;
78923;SDS011;75282;41.394;23.212;2024-03-02T12:32:15;11.07;;;7.50;;
78923;SDS011;75282;41.394;23.212;2024-03-02T12:34:40;8.57;;;6.40;;
78923;SDS011;75282;41.394;23.212;2024-03-02T12:37:05;9.07;;;7.38;;
78923;SDS011;75282;41.394;23.212;2024-03-02T12:39:31;9.73;;;6.40;;
78923;SDS011;75282;41.394;23.212;2024-03-02T12:41:58;10.32;;;6.85;;
78923;SDS011;75282;41.394;23.212;2024-03-02T12:44:23;9.10;;;6.72;;
78923;SDS011;75282;41.394;23.212;2024-03-02T12:46:48;15.20;;;8.53;;
78923;SDS011;75282;41.394;23.212;2024-03-02T12:49:14;11.27;;;7.30;;
78923;SDS011;75282;41.394;23.212;2024-03-02T12:51:45;18.40;;;9.63;;
78923;SDS011;75282;41.394;23.212;2024-03-02T12:54:16;9.10;;;7.00;;
78923;SDS011;75282;41.394;23.212;2024-03-02T12:56:42;8.73;;;6.93;;
78923;SDS011;75282;41.394;23.212;2024-03-02T12:59:18;6.10;;;4.50;;
78923;SDS011;75282;41.394;23.212;2024-03-02T13:01:53;7.70;;;4.75;;
78923;SDS011;75282;41.394;23.212;2024-03-02T13:04:23;5.38;;;4.13;;
78923;SDS011;75282;41.394;23.212;2024-03-02T13:06:50;6.10;;;4.28;;
78923;SDS011;75282;41.394;23.212;2024-03-02T13:09:16;6.07;;;4.32;;
78923;SDS011;75282;41.394;23.212;2024-03-02T13:11:42;6.80;;;5.50;;
78923;SDS011;75282;41.394;23.212;2024-03-02T13:14:07;7.55;;;6.25;;
78923;SDS011;75282;41.394;23.212;2024-03-02T13:16:38;7.22;;;5.47;;
78923;SDS011;75282;41.394;23.212;2024-03-02T13:19:06;7.38;;;4.15;;
78923;SDS011;75282;41.394;23.212;2024-03-02T13:21:36;7.60;;;4.68;;
78923;SDS011;75282;41.394;23.212;2024-03-02T13:24:01;6.47;;;4.80;;
78923;SDS011;75282;41.394;23.212;2024-03-02T13:26:28;7.40;;;5.25;;
78923;SDS011;75282;41.394;23.212;2024-03-02T13:28:53;7.55;;;5.45;;
78923;SDS011;75282;41.394;23.212;2024-03-02T13:31:19;6.60;;;5.10;;
78923;SDS011;75282;41.394;23.212;2024-03-02T13:33:44;7.47;;;4.95;;
78923;SDS011;75282;41.394;23.212;2024-03-02T13:36:10;8.57;;;4.77;;
78923;SDS011;75282;41.394;23.212;2024-03-02T13:38:35;5.73;;;4.87;;
78923;SDS011;75282;41.394;23.212;2024-03-02T13:41:01;5.05;;;4.43;;
78923;SDS011;75282;41.394;23.212;2024-03-02T13:43:26;6.72;;;4.20;;
78923;SDS011;75282;41.394;23.212;2024-03-02T13:45:52;5.82;;;4.20;;
78923;SDS011;75282;41.394;23.212;2024-03-02T13:48:18;9.07;;;5.70;;
78923;SDS011;75282;41.394;23.212;2024-03-02T13:50:44;7.18;;;5.97;;
78923;SDS011;75282;41.394;23.212;2024-03-02T13:53:10;9.45;;;6.55;;
78923;SDS011;75282;41.394;23.212;2024-03-02T13:55:36;14.57;;;10.75;;
78923;SDS011;75282;41.394;23.212;2024-03-02T13:58:02;15.27;;;11.25;;
78923;SDS011;75282;41.394;23.212;2024-03-02T14:00:28;12.00;;;7.28;;
78923;SDS011;75282;41.394;23.212;2024-03-02T14:02:54;11.43;;;7.55;;
78923;SDS011;75282;41.394;23.212;2024-03-02T14:05:19;17.73;;;11.25;;
78923;SDS011;75282;41.394;23.212;2024-03-02T14:07:45;21.30;;;11.57;;
78923;SDS011;75282;41.394;23.212;2024-03-02T14:10:10;17.43;;;11.17;;
78923;SDS011;75282;41.394;23.212;2024-03-02T14:12:36;31.63;;;17.58;;
78923;SDS011;75282;41.394;23.212;2024-03-02T14:15:02;26.83;;;15.85;;
78923;SDS011;75282;41.394;23.212;2024-03-02T14:17:28;24.55;;;14.73;;